sensor_id;sensor_type;location;lat;lon;timestamp;pressure;altitude;pressure_sealevel;temperature;humidity
54194;BME280;40102;50.906;6.972;2024-01-15T00:00:16;99721.28;;;0.88;96.56
54194;BME280;40102;50.906;6.972;2024-01-15T00:02:42;99715.19;;;0.86;96.69
54194;BME280;40102;50.906;6.972;2024-01-15T00:05:07;99695.34;;;0.76;97.25
54194;BME280;40102;50.906;6.972;2024-01-15T00:07:33;99716.19;;;0.82;98.13
54194;BME280;40102;50.906;6.972;2024-01-15T00:09:58;99705.78;;;0.79;98.70
54194;BME280;40102;50.906;6.972;2024-01-15T00:12:23;99699.59;;;0.80;99.37
54194;BME280;40102;50.906;6.972;2024-01-15T00:14:49;99710.84;;;0.85;98.76
54194;BME280;40102;50.906;6.972;2024-01-15T00:17:14;99700.91;;;0.93;98.41
54194;BME280;40102;50.906;6.972;2024-01-15T00:19:39;99695.09;;;0.84;98.88
54194;BME280;40102;50.906;6.972;2024-01-15T00:22:04;99690.53;;;0.89;98.74
54194;BME280;40102;50.906;6.972;2024-01-15T00:24:30;99682.63;;;0.89;97.42
54194;BME280;40102;50.906;6.972;2024-01-15T00:26:55;99693.47;;;0.80;98.85
54194;BME280;40102;50.906;6.972;2024-01-15T00:29:21;99696.34;;;0.72;99.75
54194;BME280;40102;50.906;6.972;2024-01-15T00:31:46;99693.56;;;0.77;100.00
54194;BME280;40102;50.906;6.972;2024-01-15T00:34:13;99691.88;;;0.74;100.00
54194;BME280;40102;50.906;6.972;2024-01-15T00:36:38;99691.94;;;0.73;100.00
54194;BME280;40102;50.906;6.972;2024-01-15T00:39:04;99697.97;;;0.76;100.00
54194;BME280;40102;50.906;6.972;2024-01-15T00:41:30;99690.06;;;0.76;100.00
54194;BME280;40102;50.906;6.972;2024-01-15T00:43:56;99688.16;;;0.81;100.00
54194;BME280;40102;50.906;6.972;2024-01-15T00:46:22;99679.50;;;0.78;100.00
54194;BME280;40102;50.906;6.972;2024-01-15T00:48:47;99688.25;;;0.78;100.00
54194;BME280;40102;50.906;6.972;2024-01-15T00:51:13;99678.72;;;0.74;100.00
54194;BME280;40102;50.906;6.972;2024-01-15T00:53:38;99681.38;;;0.74;100.00
54194;BME280;40102;50.906;6.972;2024-01-15T00:56:04;99682.38;;;0.70;100.00
54194;BME280;40102;50.906;6.972;2024-01-15T00:58:29;99669.31;;;0.67;100.00
54194;BME280;40102;50.906;6.972;2024-01-15T01:00:54;99682.41;;;0.69;100.00
54194;BME280;40102;50.906;6.972;2024-01-15T01:03:20;99678.13;;;0.66;100.00
54194;BME280;40102;50.906;6.972;2024-01-15T01:05:46;99670.28;;;0.64;100.00
54194;BME280;40102;50.906;6.972;2024-01-15T01:08:13;99674.78;;;0.61;100.00
54194;BME280;40102;50.906;6.972;2024-01-15T01:10:42;99674.81;;;0.59;100.00
54194;BME280;40102;50.906;6.972;2024-01-15T01:13:10;99670.47;;;0.58;100.00
54194;BME280;40102;50.906;6.972;2024-01-15T01:15:35;99676.53;;;0.60;100.00
54194;BME280;40102;50.906;6.972;2024-01-15T01:18:00;99680.03;;;0.61;100.00
54194;BME280;40102;50.906;6.972;2024-01-15T01:20:26;99677.44;;;0.59;100.00
54194;BME280;40102;50.906;6.972;2024-01-15T01:22:51;99678.25;;;0.61;100.00
54194;BME280;40102;50.906;6.972;2024-01-15T01:25:16;99679.88;;;0.65;100.00
54194;BME280;40102;50.906;6.972;2024-01-15T01:27:42;99676.50;;;0.62;100.00
54194;BME280;40102;50.906;6.972;2024-01-15T01:30:07;99677.97;;;0.71;100.00
54194;BME280;40102;50.906;6.972;2024-01-15T01:32:32;99678.94;;;0.68;100.00
54194;BME280;40102;50.906;6.972;2024-01-15T01:34:58;99669.34;;;0.65;100.00
54194;BME280;40102;50.906;6.972;2024-01-15T01:37:23;99657.13;;;0.64;100.00
54194;BME280;40102;50.906;6.972;2024-01-15T01:39:48;99671.09;;;0.67;100.00
54194;BME280;40102;50.906;6.972;2024-01-15T01:42:14;99656.06;;;0.70;100.00
54194;BME280;40102;50.906;6.972;2024-01-15T01:44:39;99651.66;;;0.71;100.00
54194;BME280;40102;50.906;6.972;2024-01-15T01:47:05;99658.78;;;0.67;100.00
54194;BME280;40102;50.906;6.972;2024-01-15T01:49:31;99658.94;;;0.62;100.00
54194;BME280;40102;50.906;6.972;2024-01-15T01:51:58;99652.19;;;0.54;100.00
54194;BME280;40102;50.906;6.972;2024-01-15T01:54:26;99667.78;;;0.60;100.00
54194;BME280;40102;50.906;6.972;2024-01-15T01:56:53;99653.88;;;0.56;100.00
54194;BME280;40102;50.906;6.972;2024-01-15T01:59:19;99653.81;;;0.58;100.00
54194;BME280;40102;50.906;6.972;2024-01-15T02:01:44;99639.75;;;0.59;100.00
54194;BME280;40102;50.906;6.972;2024-01-15T02:04:11;99644.81;;;0.65;100.00
54194;BME280;40102;50.906;6.972;2024-01-15T02:06:36;99646.72;;;0.60;100.00
54194;BME280;40102;50.906;6.972;2024-01-15T02:09:03;99654.56;;;0.61;100.00
54194;BME280;40102;50.906;6.972;2024-01-15T02:11:28;99651.09;;;0.61;100.00
54194;BME280;40102;50.906;6.972;2024-01-15T02:13:54;99644.16;;;0.58;100.00
54194;BME280;40102;50.906;6.972;2024-01-15T02:16:20;99641.56;;;0.57;100.00
54194;BME280;40102;50.906;6.972;2024-01-15T02:18:46;99653.47;;;0.69;100.00
54194;BME280;40102;50.906;6.972;2024-01-15T02:21:11;99659.53;;;0.71;100.00
54194;BME280;40102;50.906;6.972;2024-01-15T02:23:37;99664.56;;;0.78;100.00
54194;BME280;40102;50.906;6.972;2024-01-15T02:26:03;99648.31;;;0.65;100.00
54194;BME280;40102;50.906;6.972;2024-01-15T02:28:29;99672.94;;;0.63;100.00
54194;BME280;40102;50.906;6.972;2024-01-15T02:30:55;99652.59;;;0.68;100.00
54194;BME280;40102;50.906;6.972;2024-01-15T02:33:20;99664.03;;;0.67;100.00
54194;BME280;40102;50.906;6.972;2024-01-15T02:35:45;99661.41;;;0.67;100.00
54194;BME280;40102;50.906;6.972;2024-01-15T02:38:15;99654.31;;;0.69;100.00
54194;BME280;40102;50.906;6.972;2024-01-15T02:40:41;99668.09;;;0.77;100.00
54194;BME280;40102;50.906;6.972;2024-01-15T02:43:06;99657.63;;;0.76;100.00
54194;BME280;40102;50.906;6.972;2024-01-15T02:45:31;99661.06;;;0.78;100.00
54194;BME280;40102;50.906;6.972;2024-01-15T02:47:57;99668.19;;;0.74;100.00
54194;BME280;40102;50.906;6.972;2024-01-15T02:50:22;99661.03;;;0.79;100.00
54194;BME280;40102;50.906;6.972;2024-01-15T02:52:47;99668.19;;;0.74;100.00
54194;BME280;40102;50.906;6.972;2024-01-15T02:55:13;99668.31;;;0.71;100.00
54194;BME280;40102;50.906;6.972;2024-01-15T02:57:38;99663.13;;;0.68;100.00
54194;BME280;40102;50.906;6.972;2024-01-15T03:00:04;99649.97;;;0.68;100.00
54194;BME280;40102;50.906;6.972;2024-01-15T03:02:29;99654.28;;;0.71;100.00
54194;BME280;40102;50.906;6.972;2024-01-15T03:04:57;99655.09;;;0.73;100.00
54194;BME280;40102;50.906;6.972;2024-01-15T03:07:22;99663.66;;;0.79;100.00
54194;BME280;40102;50.906;6.972;2024-01-15T03:09:47;99654.13;;;0.75;100.00
54194;BME280;40102;50.906;6.972;2024-01-15T03:12:13;99662.84;;;0.77;100.00
54194;BME280;40102;50.906;6.972;2024-01-15T03:14:38;99655.09;;;0.73;100.00
54194;BME280;40102;50.906;6.972;2024-01-15T03:17:04;99651.69;;;0.69;100.00
54194;BME280;40102;50.906;6.972;2024-01-15T03:19:29;99679.84;;;0.67;100.00
54194;BME280;40102;50.906;6.972;2024-01-15T03:21:56;99660.44;;;0.70;100.00
54194;BME280;40102;50.906;6.972;2024-01-15T03:24:21;99662.19;;;0.71;100.00
54194;BME280;40102;50.906;6.972;2024-01-15T03:26:46;99656.75;;;0.75;100.00
54194;BME280;40102;50.906;6.972;2024-01-15T03:29:12;99645.44;;;0.73;100.00
54194;BME280;40102;50.906;6.972;2024-01-15T03:31:37;99651.75;;;0.68;100.00
54194;BME280;40102;50.906;6.972;2024-01-15T03:34:02;99656.06;;;0.70;100.00
54194;BME280;40102;50.906;6.972;2024-01-15T03:36:28;99644.91;;;0.62;100.00
54194;BME280;40102;50.906;6.972;2024-01-15T03:38:54;99639.59;;;0.63;100.00
54194;BME280;40102;50.906;6.972;2024-01-15T03:41:19;99655.19;;;0.70;100.00
54194;BME280;40102;50.906;6.972;2024-01-15T03:43:44;99660.56;;;0.67;100.00
54194;BME280;40102;50.906;6.972;2024-01-15T03:46:10;99641.31;;;0.64;100.00
54194;BME280;40102;50.906;6.972;2024-01-15T03:48:35;99639.66;;;0.62;100.00
54194;BME280;40102;50.906;6.972;2024-01-15T03:51:00;99649.06;;;0.69;100.00
54194;BME280;40102;50.906;6.972;2024-01-15T03:53:26;99648.34;;;0.64;100.00
54194;BME280;40102;50.906;6.972;2024-01-15T03:55:51;99663.03;;;0.71;100.00
54194;BME280;40102;50.906;6.972;2024-01-15T03:58:17;99644.63;;;0.71;100.00
54194;BME280;40102;50.906;6.972;2024-01-15T04:00:43;99662.19;;;0.71;100.00
54194;BME280;40102;50.906;6.972;2024-01-15T04:03:08;99648.06;;;0.73;100.00
54194;BME280;40102;50.906;6.972;2024-01-15T04:05:34;99648.06;;;0.73;100.00
54194;BME280;40102;50.906;6.972;2024-01-15T04:07:59;99643.50;;;0.78;100.00
54194;BME280;40102;50.906;6.972;2024-01-15T04:10:24;99636.72;;;0.71;100.00
54194;BME280;40102;50.906;6.972;2024-01-15T04:12:50;99638.44;;;0.72;100.00
54194;BME280;40102;50.906;6.972;2024-01-15T04:15:15;99634.03;;;0.73;100.00
54194;BME280;40102;50.906;6.972;2024-01-15T04:17:41;99637.31;;;0.79;100.00
54194;BME280;40102;50.906;6.972;2024-01-15T04:20:07;99641.72;;;0.79;100.00
54194;BME280;40102;50.906;6.972;2024-01-15T04:22:34;99636.38;;;0.82;100.00
54194;BME280;40102;50.906;6.972;2024-01-15T04:24:59;99629.44;;;0.79;100.00
54194;BME280;40102;50.906;6.972;2024-01-15T04:27:24;99627.56;;;0.83;100.00
54194;BME280;40102;50.906;6.972;2024-01-15T04:29:49;99637.97;;;0.86;100.00
54194;BME280;40102;50.906;6.972;2024-01-15T04:32:15;99616.97;;;0.84;100.00
54194;BME280;40102;50.906;6.972;2024-01-15T04:34:40;99616.13;;;0.84;100.00
54194;BME280;40102;50.906;6.972;2024-01-15T04:37:06;99624.00;;;0.84;100.00
54194;BME280;40102;50.906;6.972;2024-01-15T04:39:31;99608.25;;;0.82;100.00
54194;BME280;40102;50.906;6.972;2024-01-15T04:41:56;99609.06;;;0.84;100.00
54194;BME280;40102;50.906;6.972;2024-01-15T04:44:22;99607.34;;;0.83;100.00
54194;BME280;40102;50.906;6.972;2024-01-15T04:46:47;99607.34;;;0.83;100.00
54194;BME280;40102;50.906;6.972;2024-01-15T04:49:12;99603.06;;;0.81;100.00
54194;BME280;40102;50.906;6.972;2024-01-15T04:51:38;99614.28;;;0.86;100.00
54194;BME280;40102;50.906;6.972;2024-01-15T04:54:03;99608.13;;;0.87;100.00
54194;BME280;40102;50.906;6.972;2024-01-15T04:56:29;99608.13;;;0.87;100.00
54194;BME280;40102;50.906;6.972;2024-01-15T04:58:54;99606.34;;;0.87;100.00
54194;BME280;40102;50.906;6.972;2024-01-15T05:01:19;99593.38;;;0.81;100.00
54194;BME280;40102;50.906;6.972;2024-01-15T05:03:45;99609.06;;;0.84;100.00
54194;BME280;40102;50.906;6.972;2024-01-15T05:06:10;99596.66;;;0.88;100.00
54194;BME280;40102;50.906;6.972;2024-01-15T05:08:36;99596.81;;;0.83;100.00
54194;BME280;40102;50.906;6.972;2024-01-15T05:11:01;99606.44;;;0.84;100.00
54194;BME280;40102;50.906;6.972;2024-01-15T05:13:27;99595.97;;;0.83;100.00
54194;BME280;40102;50.906;6.972;2024-01-15T05:15:53;99595.06;;;0.84;100.00
54194;BME280;40102;50.906;6.972;2024-01-15T05:18:18;99598.44;;;0.87;100.00
54194;BME280;40102;50.906;6.972;2024-01-15T05:20:43;99590.53;;;0.87;100.00
54194;BME280;40102;50.906;6.972;2024-01-15T05:23:09;99577.28;;;0.90;100.00
54194;BME280;40102;50.906;6.972;2024-01-15T05:25:34;99574.63;;;0.90;100.00
54194;BME280;40102;50.906;6.972;2024-01-15T05:28:00;99583.25;;;0.95;100.00
54194;BME280;40102;50.906;6.972;2024-01-15T05:30:25;99587.44;;;1.01;100.00
54194;BME280;40102;50.906;6.972;2024-01-15T05:32:50;99584.03;;;0.97;100.00
54194;BME280;40102;50.906;6.972;2024-01-15T05:35:16;99588.56;;;0.94;100.00
54194;BME280;40102;50.906;6.972;2024-01-15T05:37:44;99581.47;;;0.96;100.00
54194;BME280;40102;50.906;6.972;2024-01-15T05:40:11;99594.59;;;0.97;100.00
54194;BME280;40102;50.906;6.972;2024-01-15T05:42:36;99592.06;;;0.94;100.00
54194;BME280;40102;50.906;6.972;2024-01-15T05:45:02;99582.28;;;0.98;100.00
54194;BME280;40102;50.906;6.972;2024-01-15T05:47:29;99583.13;;;0.98;100.00
54194;BME280;40102;50.906;6.972;2024-01-15T05:49:54;99588.19;;;1.05;100.00
54194;BME280;40102;50.906;6.972;2024-01-15T05:52:20;99587.38;;;1.03;100.00
54194;BME280;40102;50.906;6.972;2024-01-15T05:54:47;99573.34;;;1.02;100.00
54194;BME280;40102;50.906;6.972;2024-01-15T05:57:12;99569.00;;;1.01;100.00
54194;BME280;40102;50.906;6.972;2024-01-15T05:59:37;99583.78;;;1.05;100.00
54194;BME280;40102;50.906;6.972;2024-01-15T06:02:03;99571.41;;;1.07;100.00
54194;BME280;40102;50.906;6.972;2024-01-15T06:04:28;99565.50;;;1.01;100.00
54194;BME280;40102;50.906;6.972;2024-01-15T06:06:54;99573.34;;;1.02;100.00
54194;BME280;40102;50.906;6.972;2024-01-15T06:09:19;99568.25;;;0.97;100.00
54194;BME280;40102;50.906;6.972;2024-01-15T06:11:44;99581.31;;;1.01;100.00
54194;BME280;40102;50.906;6.972;2024-01-15T06:14:09;99575.19;;;1.00;100.00
54194;BME280;40102;50.906;6.972;2024-01-15T06:16:35;99561.97;;;1.02;100.00
54194;BME280;40102;50.906;6.972;2024-01-15T06:19:00;99568.84;;;1.06;100.00
54194;BME280;40102;50.906;6.972;2024-01-15T06:21:25;99570.56;;;1.07;100.00
54194;BME280;40102;50.906;6.972;2024-01-15T06:23:51;99561.81;;;1.06;100.00
54194;BME280;40102;50.906;6.972;2024-01-15T06:26:16;99579.09;;;1.13;100.00
54194;BME280;40102;50.906;6.972;2024-01-15T06:28:42;99565.50;;;1.01;100.00
54194;BME280;40102;50.906;6.972;2024-01-15T06:31:07;99570.13;;;0.94;100.00
54194;BME280;40102;50.906;6.972;2024-01-15T06:33:33;99570.94;;;0.96;100.00
54194;BME280;40102;50.906;6.972;2024-01-15T06:35:58;99568.34;;;0.94;100.00
54194;BME280;40102;50.906;6.972;2024-01-15T06:38:24;99565.34;;;1.05;100.00
54194;BME280;40102;50.906;6.972;2024-01-15T06:40:50;99572.50;;;1.26;100.00
54194;BME280;40102;50.906;6.972;2024-01-15T06:43:17;99565.91;;;1.38;100.00
54194;BME280;40102;50.906;6.972;2024-01-15T06:45:43;99562.72;;;1.53;100.00
54194;BME280;40102;50.906;6.972;2024-01-15T06:48:08;99563.28;;;1.61;100.00
54194;BME280;40102;50.906;6.972;2024-01-15T06:50:34;99559.00;;;1.59;100.00
54194;BME280;40102;50.906;6.972;2024-01-15T06:52:59;99563.22;;;1.40;100.00
54194;BME280;40102;50.906;6.972;2024-01-15T06:55:25;99560.13;;;1.28;100.00
54194;BME280;40102;50.906;6.972;2024-01-15T06:57:51;99547.34;;;1.18;100.00
54194;BME280;40102;50.906;6.972;2024-01-15T07:00:17;99547.59;;;1.10;100.00
54194;BME280;40102;50.906;6.972;2024-01-15T07:02:45;99542.41;;;1.09;100.00
54194;BME280;40102;50.906;6.972;2024-01-15T07:05:10;99555.78;;;1.03;100.00
54194;BME280;40102;50.906;6.972;2024-01-15T07:07:36;99558.31;;;1.06;100.00
54194;BME280;40102;50.906;6.972;2024-01-15T07:10:01;99544.59;;;0.96;100.00
54194;BME280;40102;50.906;6.972;2024-01-15T07:12:28;99556.84;;;0.97;100.00
54194;BME280;40102;50.906;6.972;2024-01-15T07:14:54;99564.66;;;1.00;100.00
54194;BME280;40102;50.906;6.972;2024-01-15T07:17:20;99551.66;;;0.95;100.00
54194;BME280;40102;50.906;6.972;2024-01-15T07:19:46;99554.44;;;0.91;100.00
54194;BME280;40102;50.906;6.972;2024-01-15T07:22:12;99550.78;;;0.95;100.00
54194;BME280;40102;50.906;6.972;2024-01-15T07:24:37;99551.91;;;0.88;100.00
54194;BME280;40102;50.906;6.972;2024-01-15T07:27:02;99550.13;;;0.88;100.00
54194;BME280;40102;50.906;6.972;2024-01-15T07:29:30;99556.09;;;0.93;100.00
54194;BME280;40102;50.906;6.972;2024-01-15T07:31:55;99557.06;;;0.91;100.00
54194;BME280;40102;50.906;6.972;2024-01-15T07:34:20;99555.09;;;0.97;100.00
54194;BME280;40102;50.906;6.972;2024-01-15T07:36:47;99541.16;;;0.94;100.00
54194;BME280;40102;50.906;6.972;2024-01-15T07:39:12;99543.75;;;0.95;100.00
54194;BME280;40102;50.906;6.972;2024-01-15T07:41:38;99544.44;;;1.01;100.00
54194;BME280;40102;50.906;6.972;2024-01-15T07:44:04;99539.28;;;0.97;100.00
54194;BME280;40102;50.906;6.972;2024-01-15T07:46:30;99541.06;;;0.97;100.00
54194;BME280;40102;50.906;6.972;2024-01-15T07:48:55;99550.69;;;0.98;100.00
54194;BME280;40102;50.906;6.972;2024-01-15T07:51:24;99539.19;;;1.01;100.00
54194;BME280;40102;50.906;6.972;2024-01-15T07:53:49;99549.50;;;1.07;100.00
54194;BME280;40102;50.906;6.972;2024-01-15T07:56:15;99550.41;;;1.06;100.00
54194;BME280;40102;50.906;6.972;2024-01-15T07:58:41;99558.41;;;1.03;100.00
54194;BME280;40102;50.906;6.972;2024-01-15T08:01:06;99548.63;;;1.06;100.00
54194;BME280;40102;50.906;6.972;2024-01-15T08:03:32;99549.50;;;1.07;100.00
54194;BME280;40102;50.906;6.972;2024-01-15T08:05:58;99550.34;;;1.07;100.00
54194;BME280;40102;50.906;6.972;2024-01-15T08:08:24;99568.63;;;1.12;100.00
54194;BME280;40102;50.906;6.972;2024-01-15T08:10:51;99537.13;;;1.09;100.00
54194;BME280;40102;50.906;6.972;2024-01-15T08:13:16;99549.44;;;1.08;100.00
54194;BME280;40102;50.906;6.972;2024-01-15T08:15:42;99540.63;;;1.09;100.00
54194;BME280;40102;50.906;6.972;2024-01-15T08:18:07;99544.28;;;1.05;100.00
54194;BME280;40102;50.906;6.972;2024-01-15T08:20:32;99537.13;;;1.09;100.00
54194;BME280;40102;50.906;6.972;2024-01-15T08:22:58;99533.75;;;1.05;100.00
54194;BME280;40102;50.906;6.972;2024-01-15T08:25:23;99535.41;;;1.08;100.00
54194;BME280;40102;50.906;6.972;2024-01-15T08:27:48;99523.25;;;1.04;100.00
54194;BME280;40102;50.906;6.972;2024-01-15T08:30:14;99532.78;;;1.08;100.00
54194;BME280;40102;50.906;6.972;2024-01-15T08:32:39;99534.59;;;1.06;100.00
54194;BME280;40102;50.906;6.972;2024-01-15T08:35:08;99532.84;;;1.06;100.00
54194;BME280;40102;50.906;6.972;2024-01-15T08:37:34;99524.75;;;1.11;100.00
54194;BME280;40102;50.906;6.972;2024-01-15T08:39:59;99532.78;;;1.08;100.00
54194;BME280;40102;50.906;6.972;2024-01-15T08:42:25;99538.03;;;1.08;100.00
54194;BME280;40102;50.906;6.972;2024-01-15T08:44:50;99540.56;;;1.11;100.00
54194;BME280;40102;50.906;6.972;2024-01-15T08:47:16;99540.69;;;1.08;100.00
54194;BME280;40102;50.906;6.972;2024-01-15T08:49:42;99522.06;;;1.12;100.00
54194;BME280;40102;50.906;6.972;2024-01-15T08:52:08;99534.06;;;1.21;100.00
54194;BME280;40102;50.906;6.972;2024-01-15T08:54:34;99538.63;;;1.16;100.00
54194;BME280;40102;50.906;6.972;2024-01-15T08:57:04;99523.84;;;1.12;100.00
54194;BME280;40102;50.906;6.972;2024-01-15T08:59:30;99527.97;;;1.19;100.00
54194;BME280;40102;50.906;6.972;2024-01-15T09:01:55;99530.72;;;1.16;100.00
54194;BME280;40102;50.906;6.972;2024-01-15T09:04:23;99530.03;;;1.11;100.00
54194;BME280;40102;50.906;6.972;2024-01-15T09:06:48;99531.88;;;1.09;100.00
54194;BME280;40102;50.906;6.972;2024-01-15T09:09:13;99533.53;;;1.11;100.00
54194;BME280;40102;50.906;6.972;2024-01-15T09:11:42;99535.78;;;1.22;100.00
54194;BME280;40102;50.906;6.972;2024-01-15T09:14:07;99525.50;;;1.14;100.00
54194;BME280;40102;50.906;6.972;2024-01-15T09:16:34;99533.69;;;1.07;100.00
54194;BME280;40102;50.906;6.972;2024-01-15T09:18:59;99524.81;;;1.09;100.00
54194;BME280;40102;50.906;6.972;2024-01-15T09:21:25;99524.81;;;1.09;100.00
54194;BME280;40102;50.906;6.972;2024-01-15T09:23:51;99520.13;;;1.17;100.00
54194;BME280;40102;50.906;6.972;2024-01-15T09:26:16;99531.63;;;1.15;100.00
54194;BME280;40102;50.906;6.972;2024-01-15T09:28:42;99543.94;;;1.14;100.00
54194;BME280;40102;50.906;6.972;2024-01-15T09:31:07;99547.56;;;1.12;100.00
54194;BME280;40102;50.906;6.972;2024-01-15T09:33:32;99543.19;;;1.11;100.00
54194;BME280;40102;50.906;6.972;2024-01-15T09:36:02;99545.78;;;1.12;100.00
54194;BME280;40102;50.906;6.972;2024-01-15T09:38:29;99545.84;;;1.11;100.00
54194;BME280;40102;50.906;6.972;2024-01-15T09:40:54;99547.56;;;1.12;100.00
54194;BME280;40102;50.906;6.972;2024-01-15T09:43:21;99554.00;;;1.03;100.00
54194;BME280;40102;50.906;6.972;2024-01-15T09:45:46;99574.16;;;1.04;100.00
54194;BME280;40102;50.906;6.972;2024-01-15T09:48:14;99557.72;;;0.97;100.00
54194;BME280;40102;50.906;6.972;2024-01-15T09:50:39;99562.19;;;0.95;100.00
54194;BME280;40102;50.906;6.972;2024-01-15T09:53:05;99560.50;;;0.93;100.00
54194;BME280;40102;50.906;6.972;2024-01-15T09:55:30;99551.84;;;0.89;100.00
54194;BME280;40102;50.906;6.972;2024-01-15T09:57:59;99574.47;;;0.95;100.00
54194;BME280;40102;50.906;6.972;2024-01-15T10:00:26;99562.38;;;0.89;100.00
54194;BME280;40102;50.906;6.972;2024-01-15T10:02:52;99576.97;;;1.00;100.00
54194;BME280;40102;50.906;6.972;2024-01-15T10:05:17;99569.91;;;1.00;100.00
54194;BME280;40102;50.906;6.972;2024-01-15T10:07:43;99576.84;;;1.03;100.00
54194;BME280;40102;50.906;6.972;2024-01-15T10:10:11;99581.09;;;1.07;100.00
54194;BME280;40102;50.906;6.972;2024-01-15T10:12:37;99584.81;;;1.01;100.00
54194;BME280;40102;50.906;6.972;2024-01-15T10:15:04;99581.16;;;1.05;100.00
54194;BME280;40102;50.906;6.972;2024-01-15T10:17:30;99571.47;;;1.06;100.00
54194;BME280;40102;50.906;6.972;2024-01-15T10:19:56;99563.47;;;1.09;100.00
54194;BME280;40102;50.906;6.972;2024-01-15T10:22:22;99575.56;;;1.14;100.00
54194;BME280;40102;50.906;6.972;2024-01-15T10:24:48;99572.88;;;1.16;100.00
54194;BME280;40102;50.906;6.972;2024-01-15T10:27:13;99576.31;;;1.18;100.00
54194;BME280;40102;50.906;6.972;2024-01-15T10:29:41;99587.06;;;1.12;100.00
54194;BME280;40102;50.906;6.972;2024-01-15T10:32:07;99580.03;;;1.12;100.00
54194;BME280;40102;50.906;6.972;2024-01-15T10:34:39;99587.06;;;1.12;100.00
54194;BME280;40102;50.906;6.972;2024-01-15T10:37:07;99584.38;;;1.13;100.00
54194;BME280;40102;50.906;6.972;2024-01-15T10:39:32;99585.44;;;1.08;100.00
54194;BME280;40102;50.906;6.972;2024-01-15T10:41:58;99582.06;;;1.04;100.00
54194;BME280;40102;50.906;6.972;2024-01-15T10:44:25;99584.75;;;1.03;100.00
54194;BME280;40102;50.906;6.972;2024-01-15T10:46:50;99582.91;;;1.05;100.00
54194;BME280;40102;50.906;6.972;2024-01-15T10:49:16;99582.00;;;1.06;100.00
54194;BME280;40102;50.906;6.972;2024-01-15T10:51:44;99572.34;;;1.06;100.00
54194;BME280;40102;50.906;6.972;2024-01-15T10:54:10;99572.28;;;1.08;100.00
54194;BME280;40102;50.906;6.972;2024-01-15T10:56:37;99572.28;;;1.08;100.00
54194;BME280;40102;50.906;6.972;2024-01-15T10:59:03;99571.63;;;1.01;100.00
54194;BME280;40102;50.906;6.972;2024-01-15T11:01:30;99575.19;;;1.00;100.00
54194;BME280;40102;50.906;6.972;2024-01-15T11:03:56;99569.06;;;1.00;100.00
54194;BME280;40102;50.906;6.972;2024-01-15T11:06:24;99579.44;;;1.04;100.00
54194;BME280;40102;50.906;6.972;2024-01-15T11:08:52;99583.78;;;1.05;100.00
54194;BME280;40102;50.906;6.972;2024-01-15T11:11:18;99577.59;;;1.06;100.00
54194;BME280;40102;50.906;6.972;2024-01-15T11:13:46;99589.81;;;1.09;100.00
54194;BME280;40102;50.906;6.972;2024-01-15T11:16:14;99591.47;;;1.11;100.00
54194;BME280;40102;50.906;6.972;2024-01-15T11:19:01;99581.19;;;1.04;100.00
54194;BME280;40102;50.906;6.972;2024-01-15T11:21:28;99589.00;;;1.07;100.00
54194;BME280;40102;50.906;6.972;2024-01-15T11:26:29;99594.31;;;1.05;100.00
54194;BME280;40102;50.906;6.972;2024-01-15T11:28:55;99600.53;;;1.03;100.00
54194;BME280;40102;50.906;6.972;2024-01-15T11:31:29;99596.25;;;1.00;100.00
54194;BME280;40102;50.906;6.972;2024-01-15T11:33:55;99587.31;;;1.04;100.00
54194;BME280;40102;50.906;6.972;2024-01-15T11:36:42;99603.84;;;1.09;100.00
54194;BME280;40102;50.906;6.972;2024-01-15T11:41:59;99611.03;;;1.04;100.00
54194;BME280;40102;50.906;6.972;2024-01-15T11:44:25;99583.94;;;1.01;100.00
54194;BME280;40102;50.906;6.972;2024-01-15T11:46:58;99598.06;;;0.98;100.00
54194;BME280;40102;50.906;6.972;2024-01-15T11:52:11;99596.31;;;0.98;100.00
54194;BME280;40102;50.906;6.972;2024-01-15T11:54:38;99588.34;;;1.00;100.00
54194;BME280;40102;50.906;6.972;2024-01-15T11:57:09;99616.25;;;1.06;100.00
54194;BME280;40102;50.906;6.972;2024-01-15T11:59:41;99597.81;;;1.06;100.00
54194;BME280;40102;50.906;6.972;2024-01-15T12:02:07;99599.63;;;1.04;100.00
54194;BME280;40102;50.906;6.972;2024-01-15T12:04:32;99584.66;;;1.06;100.00
54194;BME280;40102;50.906;6.972;2024-01-15T12:06:57;99594.06;;;1.13;100.00
54194;BME280;40102;50.906;6.972;2024-01-15T12:09:23;99594.91;;;1.13;100.00
54194;BME280;40102;50.906;6.972;2024-01-15T12:11:55;99587.00;;;1.13;100.00
54194;BME280;40102;50.906;6.972;2024-01-15T12:14:24;99595.88;;;1.11;100.00
54194;BME280;40102;50.906;6.972;2024-01-15T12:16:49;99591.31;;;1.16;100.00
54194;BME280;40102;50.906;6.972;2024-01-15T12:19:15;99589.63;;;1.13;100.00
54194;BME280;40102;50.906;6.972;2024-01-15T12:21:41;99594.97;;;1.12;100.00
54194;BME280;40102;50.906;6.972;2024-01-15T12:24:09;99588.56;;;1.19;100.00
54194;BME280;40102;50.906;6.972;2024-01-15T12:26:35;99591.84;;;1.25;100.00
54194;BME280;40102;50.906;6.972;2024-01-15T12:29:06;99571.50;;;1.29;100.00
54194;BME280;40102;50.906;6.972;2024-01-15T12:31:31;99584.53;;;1.34;100.00
54194;BME280;40102;50.906;6.972;2024-01-15T12:33:57;99581.63;;;1.41;100.00
54194;BME280;40102;50.906;6.972;2024-01-15T12:36:23;99587.63;;;1.45;100.00
54194;BME280;40102;50.906;6.972;2024-01-15T12:38:48;99582.31;;;1.46;100.00
54194;BME280;40102;50.906;6.972;2024-01-15T12:41:14;99584.81;;;1.49;100.00
54194;BME280;40102;50.906;6.972;2024-01-15T12:43:40;99578.59;;;1.52;100.00
54194;BME280;40102;50.906;6.972;2024-01-15T12:46:05;99581.16;;;1.53;100.00
54194;BME280;40102;50.906;6.972;2024-01-15T12:48:31;99580.19;;;1.56;100.00
54194;BME280;40102;50.906;6.972;2024-01-15T12:50:56;99597.72;;;1.57;100.00
54194;BME280;40102;50.906;6.972;2024-01-15T12:53:22;99598.53;;;1.59;100.00
54194;BME280;40102;50.906;6.972;2024-01-15T12:55:47;99582.03;;;1.54;100.00
54194;BME280;40102;50.906;6.972;2024-01-15T12:58:13;99586.31;;;1.56;100.00
54194;BME280;40102;50.906;6.972;2024-01-15T13:00:39;99594.97;;;1.60;100.00